sensor_id;sensor_type;location;lat;lon;timestamp;temperature;humidity
40960;DHT22;27842;52.272;8.052;2022-07-29T00:02:07;20.30;60.90
40960;DHT22;27842;52.272;8.052;2022-07-29T00:04:34;20.30;60.20
40960;DHT22;27842;52.272;8.052;2022-07-29T00:07:00;20.30;60.20
40960;DHT22;27842;52.272;8.052;2022-07-29T00:09:26;20.30;60.20
40960;DHT22;27842;52.272;8.052;2022-07-29T00:11:51;20.30;60.20
40960;DHT22;27842;52.272;8.052;2022-07-29T00:14:17;20.20;60.30
40960;DHT22;27842;52.272;8.052;2022-07-29T00:16:44;20.20;60.30
40960;DHT22;27842;52.272;8.052;2022-07-29T00:19:30;20.20;60.50
40960;DHT22;27842;52.272;8.052;2022-07-29T00:21:55;20.10;60.50
40960;DHT22;27842;52.272;8.052;2022-07-29T00:24:21;20.10;60.50
40960;DHT22;27842;52.272;8.052;2022-07-29T00:26:46;20.00;60.60
40960;DHT22;27842;52.272;8.052;2022-07-29T00:29:12;20.10;60.80
40960;DHT22;27842;52.272;8.052;2022-07-29T00:31:37;20.10;60.90
40960;DHT22;27842;52.272;8.052;2022-07-29T00:34:03;20.00;60.90
40960;DHT22;27842;52.272;8.052;2022-07-29T00:36:29;20.00;61.00
40960;DHT22;27842;52.272;8.052;2022-07-29T00:38:54;20.00;61.00
40960;DHT22;27842;52.272;8.052;2022-07-29T00:41:20;20.00;60.90
40960;DHT22;27842;52.272;8.052;2022-07-29T00:43:46;20.10;60.90
40960;DHT22;27842;52.272;8.052;2022-07-29T00:46:12;20.00;60.90
40960;DHT22;27842;52.272;8.052;2022-07-29T00:48:37;20.00;60.90
40960;DHT22;27842;52.272;8.052;2022-07-29T00:51:05;20.00;60.90
40960;DHT22;27842;52.272;8.052;2022-07-29T00:53:31;20.00;61.10
40960;DHT22;27842;52.272;8.052;2022-07-29T00:55:58;19.90;61.00
40960;DHT22;27842;52.272;8.052;2022-07-29T00:58:24;19.90;61.20
40960;DHT22;27842;52.272;8.052;2022-07-29T01:00:50;20.00;61.20
40960;DHT22;27842;52.272;8.052;2022-07-29T01:03:15;19.90;61.30
40960;DHT22;27842;52.272;8.052;2022-07-29T01:05:42;19.90;61.20
40960;DHT22;27842;52.272;8.052;2022-07-29T01:08:08;20.00;61.20
40960;DHT22;27842;52.272;8.052;2022-07-29T01:10:38;20.00;61.30
40960;DHT22;27842;52.272;8.052;2022-07-29T01:13:05;19.80;61.20
40960;DHT22;27842;52.272;8.052;2022-07-29T01:15:33;19.80;61.50
40960;DHT22;27842;52.272;8.052;2022-07-29T01:18:22;19.70;61.50
40960;DHT22;27842;52.272;8.052;2022-07-29T01:23:38;19.70;61.80
40960;DHT22;27842;52.272;8.052;2022-07-29T01:26:28;19.70;61.90
40960;DHT22;27842;52.272;8.052;2022-07-29T01:29:24;19.70;61.90
40960;DHT22;27842;52.272;8.052;2022-07-29T01:32:07;19.60;62.00
40960;DHT22;27842;52.272;8.052;2022-07-29T01:34:50;19.60;62.10
40960;DHT22;27842;52.272;8.052;2022-07-29T01:37:25;19.70;62.10
40960;DHT22;27842;52.272;8.052;2022-07-29T01:39:54;19.60;62.10
40960;DHT22;27842;52.272;8.052;2022-07-29T01:42:26;19.60;62.30
40960;DHT22;27842;52.272;8.052;2022-07-29T01:44:57;19.60;62.10
40960;DHT22;27842;52.272;8.052;2022-07-29T01:47:29;19.50;62.40
40960;DHT22;27842;52.272;8.052;2022-07-29T01:49:58;19.50;62.50
40960;DHT22;27842;52.272;8.052;2022-07-29T01:52:36;19.40;62.50
40960;DHT22;27842;52.272;8.052;2022-07-29T01:55:07;19.30;62.60
40960;DHT22;27842;52.272;8.052;2022-07-29T01:57:36;19.30;62.90
40960;DHT22;27842;52.272;8.052;2022-07-29T02:00:04;19.20;63.00
40960;DHT22;27842;52.272;8.052;2022-07-29T02:02:32;19.20;63.10
40960;DHT22;27842;52.272;8.052;2022-07-29T02:05:00;19.20;63.10
40960;DHT22;27842;52.272;8.052;2022-07-29T02:07:28;19.30;63.00
40960;DHT22;27842;52.272;8.052;2022-07-29T02:09:55;19.30;62.90
40960;DHT22;27842;52.272;8.052;2022-07-29T02:12:22;19.30;62.80
40960;DHT22;27842;52.272;8.052;2022-07-29T02:14:51;19.30;62.90
40960;DHT22;27842;52.272;8.052;2022-07-29T02:17:31;19.30;62.90
40960;DHT22;27842;52.272;8.052;2022-07-29T02:20:00;19.30;62.90
40960;DHT22;27842;52.272;8.052;2022-07-29T02:22:29;19.20;63.00
40960;DHT22;27842;52.272;8.052;2022-07-29T02:24:55;19.20;63.00
40960;DHT22;27842;52.272;8.052;2022-07-29T02:27:22;19.20;63.10
40960;DHT22;27842;52.272;8.052;2022-07-29T02:29:49;19.20;63.20
40960;DHT22;27842;52.272;8.052;2022-07-29T02:32:16;19.10;63.30
40960;DHT22;27842;52.272;8.052;2022-07-29T02:34:43;19.10;63.30
40960;DHT22;27842;52.272;8.052;2022-07-29T02:37:10;19.10;63.40
40960;DHT22;27842;52.272;8.052;2022-07-29T02:39:37;19.10;63.50
40960;DHT22;27842;52.272;8.052;2022-07-29T02:42:07;19.10;63.40
40960;DHT22;27842;52.272;8.052;2022-07-29T02:44:35;19.10;63.40
40960;DHT22;27842;52.272;8.052;2022-07-29T02:49:31;19.00;63.50
40960;DHT22;27842;52.272;8.052;2022-07-29T02:52:06;19.00;63.60
40960;DHT22;27842;52.272;8.052;2022-07-29T02:54:52;19.00;63.70
40960;DHT22;27842;52.272;8.052;2022-07-29T02:57:44;19.00;63.70
40960;DHT22;27842;52.272;8.052;2022-07-29T03:00:12;19.00;63.60
40960;DHT22;27842;52.272;8.052;2022-07-29T03:02:42;19.00;63.70
40960;DHT22;27842;52.272;8.052;2022-07-29T03:05:12;19.00;63.60
40960;DHT22;27842;52.272;8.052;2022-07-29T03:07:41;19.00;63.60
40960;DHT22;27842;52.272;8.052;2022-07-29T03:10:08;19.00;63.60
40960;DHT22;27842;52.272;8.052;2022-07-29T03:12:34;19.00;63.70
40960;DHT22;27842;52.272;8.052;2022-07-29T03:15:01;18.90;63.70
40960;DHT22;27842;52.272;8.052;2022-07-29T03:17:27;19.00;63.80
40960;DHT22;27842;52.272;8.052;2022-07-29T03:19:53;18.90;63.70
40960;DHT22;27842;52.272;8.052;2022-07-29T03:22:20;18.90;63.80
40960;DHT22;27842;52.272;8.052;2022-07-29T03:24:46;18.90;63.80
40960;DHT22;27842;52.272;8.052;2022-07-29T03:27:11;18.90;63.90
40960;DHT22;27842;52.272;8.052;2022-07-29T03:29:37;18.80;64.10
40960;DHT22;27842;52.272;8.052;2022-07-29T03:32:04;18.80;64.30
40960;DHT22;27842;52.272;8.052;2022-07-29T03:34:30;18.80;64.20
40960;DHT22;27842;52.272;8.052;2022-07-29T03:36:55;18.80;64.20
40960;DHT22;27842;52.272;8.052;2022-07-29T03:39:24;18.70;64.20
40960;DHT22;27842;52.272;8.052;2022-07-29T03:41:55;18.80;64.40
40960;DHT22;27842;52.272;8.052;2022-07-29T03:44:22;18.80;64.40
40960;DHT22;27842;52.272;8.052;2022-07-29T03:46:50;18.80;64.30
40960;DHT22;27842;52.272;8.052;2022-07-29T03:49:18;18.80;64.40
40960;DHT22;27842;52.272;8.052;2022-07-29T03:51:45;18.80;64.40
40960;DHT22;27842;52.272;8.052;2022-07-29T03:54:11;18.80;64.30
40960;DHT22;27842;52.272;8.052;2022-07-29T03:56:43;18.90;64.30
40960;DHT22;27842;52.272;8.052;2022-07-29T03:59:14;18.90;64.10
40960;DHT22;27842;52.272;8.052;2022-07-29T04:01:41;18.80;64.10
40960;DHT22;27842;52.272;8.052;2022-07-29T04:04:07;18.80;64.30
40960;DHT22;27842;52.272;8.052;2022-07-29T04:06:41;18.70;64.40
40960;DHT22;27842;52.272;8.052;2022-07-29T04:09:07;18.70;64.50
40960;DHT22;27842;52.272;8.052;2022-07-29T04:11:32;18.70;64.50
40960;DHT22;27842;52.272;8.052;2022-07-29T04:13:58;18.70;64.50
40960;DHT22;27842;52.272;8.052;2022-07-29T04:16:24;18.70;64.50
40960;DHT22;27842;52.272;8.052;2022-07-29T04:18:49;18.70;64.50
40960;DHT22;27842;52.272;8.052;2022-07-29T04:21:15;18.70;64.50
40960;DHT22;27842;52.272;8.052;2022-07-29T04:23:40;18.70;64.50
40960;DHT22;27842;52.272;8.052;2022-07-29T04:26:06;18.70;64.50
40960;DHT22;27842;52.272;8.052;2022-07-29T04:28:35;18.70;64.60
40960;DHT22;27842;52.272;8.052;2022-07-29T04:31:00;18.60;64.80
40960;DHT22;27842;52.272;8.052;2022-07-29T04:33:26;18.60;64.80
40960;DHT22;27842;52.272;8.052;2022-07-29T04:35:51;18.60;64.80
40960;DHT22;27842;52.272;8.052;2022-07-29T04:38:17;18.60;64.70
40960;DHT22;27842;52.272;8.052;2022-07-29T04:40:42;18.60;64.80
40960;DHT22;27842;52.272;8.052;2022-07-29T04:43:08;18.60;64.80
40960;DHT22;27842;52.272;8.052;2022-07-29T04:45:34;18.60;64.70
40960;DHT22;27842;52.272;8.052;2022-07-29T04:48:00;18.60;64.70
40960;DHT22;27842;52.272;8.052;2022-07-29T04:50:25;18.60;64.80
40960;DHT22;27842;52.272;8.052;2022-07-29T04:52:51;18.50;64.80
40960;DHT22;27842;52.272;8.052;2022-07-29T04:55:17;18.50;64.90
40960;DHT22;27842;52.272;8.052;2022-07-29T04:57:42;18.50;64.80
40960;DHT22;27842;52.272;8.052;2022-07-29T05:00:08;18.50;64.90
40960;DHT22;27842;52.272;8.052;2022-07-29T05:02:34;18.50;65.00
40960;DHT22;27842;52.272;8.052;2022-07-29T05:05:00;18.50;65.00
40960;DHT22;27842;52.272;8.052;2022-07-29T05:07:25;18.50;65.20
40960;DHT22;27842;52.272;8.052;2022-07-29T05:09:51;18.50;65.20
40960;DHT22;27842;52.272;8.052;2022-07-29T05:12:17;18.50;65.30
40960;DHT22;27842;52.272;8.052;2022-07-29T05:14:43;18.50;65.30
40960;DHT22;27842;52.272;8.052;2022-07-29T05:17:08;18.50;65.40
40960;DHT22;27842;52.272;8.052;2022-07-29T05:19:46;18.50;65.40
40960;DHT22;27842;52.272;8.052;2022-07-29T05:22:12;18.50;65.40
40960;DHT22;27842;52.272;8.052;2022-07-29T05:24:37;18.50;65.40
40960;DHT22;27842;52.272;8.052;2022-07-29T05:27:03;18.40;65.40
40960;DHT22;27842;52.272;8.052;2022-07-29T05:29:29;18.50;65.40
40960;DHT22;27842;52.272;8.052;2022-07-29T05:31:54;18.40;65.50
40960;DHT22;27842;52.272;8.052;2022-07-29T05:34:20;18.40;65.50
40960;DHT22;27842;52.272;8.052;2022-07-29T05:36:46;18.40;65.60
40960;DHT22;27842;52.272;8.052;2022-07-29T05:39:11;18.40;65.80
40960;DHT22;27842;52.272;8.052;2022-07-29T05:41:38;18.40;65.90
40960;DHT22;27842;52.272;8.052;2022-07-29T05:44:04;18.40;65.90
40960;DHT22;27842;52.272;8.052;2022-07-29T05:46:29;18.40;65.90
40960;DHT22;27842;52.272;8.052;2022-07-29T05:48:55;18.40;65.90
40960;DHT22;27842;52.272;8.052;2022-07-29T05:51:20;18.50;65.90
40960;DHT22;27842;52.272;8.052;2022-07-29T05:53:46;18.40;65.90
40960;DHT22;27842;52.272;8.052;2022-07-29T05:56:11;18.30;66.10
40960;DHT22;27842;52.272;8.052;2022-07-29T05:58:37;18.40;66.00
40960;DHT22;27842;52.272;8.052;2022-07-29T06:01:03;18.40;66.10
40960;DHT22;27842;52.272;8.052;2022-07-29T06:03:28;18.50;65.90
40960;DHT22;27842;52.272;8.052;2022-07-29T06:05:54;18.50;65.80
40960;DHT22;27842;52.272;8.052;2022-07-29T06:08:20;18.60;65.80
40960;DHT22;27842;52.272;8.052;2022-07-29T06:10:46;18.60;65.70
40960;DHT22;27842;52.272;8.052;2022-07-29T06:13:12;18.60;65.70
40960;DHT22;27842;52.272;8.052;2022-07-29T06:15:53;18.60;65.80
40960;DHT22;27842;52.272;8.052;2022-07-29T06:18:19;18.70;65.90
40960;DHT22;27842;52.272;8.052;2022-07-29T06:20:51;18.70;66.00
40960;DHT22;27842;52.272;8.052;2022-07-29T06:23:18;18.70;66.30
40960;DHT22;27842;52.272;8.052;2022-07-29T06:25:47;18.70;65.90
40960;DHT22;27842;52.272;8.052;2022-07-29T06:28:13;18.80;65.70
40960;DHT22;27842;52.272;8.052;2022-07-29T06:30:41;18.90;65.60
40960;DHT22;27842;52.272;8.052;2022-07-29T06:33:06;19.00;65.40
40960;DHT22;27842;52.272;8.052;2022-07-29T06:35:35;19.10;65.30
40960;DHT22;27842;52.272;8.052;2022-07-29T06:38:03;19.10;65.20
40960;DHT22;27842;52.272;8.052;2022-07-29T06:40:33;19.20;65.00
40960;DHT22;27842;52.272;8.052;2022-07-29T06:43:17;19.30;65.00
40960;DHT22;27842;52.272;8.052;2022-07-29T06:45:43;19.40;64.90
40960;DHT22;27842;52.272;8.052;2022-07-29T06:48:12;19.40;64.60
40960;DHT22;27842;52.272;8.052;2022-07-29T06:50:37;19.50;64.60
40960;DHT22;27842;52.272;8.052;2022-07-29T06:53:05;19.70;64.30
40960;DHT22;27842;52.272;8.052;2022-07-29T06:55:31;19.70;64.20
40960;DHT22;27842;52.272;8.052;2022-07-29T06:57:57;19.70;64.20
40960;DHT22;27842;52.272;8.052;2022-07-29T07:00:35;19.70;64.10
40960;DHT22;27842;52.272;8.052;2022-07-29T07:03:02;19.80;64.20
40960;DHT22;27842;52.272;8.052;2022-07-29T07:05:28;19.80;64.20
40960;DHT22;27842;52.272;8.052;2022-07-29T07:08:02;19.80;64.10
40960;DHT22;27842;52.272;8.052;2022-07-29T07:10:34;19.90;64.00
40960;DHT22;27842;52.272;8.052;2022-07-29T07:13:00;20.00;64.10
40960;DHT22;27842;52.272;8.052;2022-07-29T07:15:27;20.00;63.80
40960;DHT22;27842;52.272;8.052;2022-07-29T07:17:52;20.00;63.70
40960;DHT22;27842;52.272;8.052;2022-07-29T07:20:18;20.00;63.80
40960;DHT22;27842;52.272;8.052;2022-07-29T07:22:51;20.00;63.80
40960;DHT22;27842;52.272;8.052;2022-07-29T07:25:17;20.10;63.90
40960;DHT22;27842;52.272;8.052;2022-07-29T07:27:44;20.10;63.80
40960;DHT22;27842;52.272;8.052;2022-07-29T07:30:10;20.10;63.70
40960;DHT22;27842;52.272;8.052;2022-07-29T07:32:36;20.20;63.70
40960;DHT22;27842;52.272;8.052;2022-07-29T07:35:04;20.20;63.60
40960;DHT22;27842;52.272;8.052;2022-07-29T07:37:30;20.20;63.60
40960;DHT22;27842;52.272;8.052;2022-07-29T07:39:55;20.20;63.70
40960;DHT22;27842;52.272;8.052;2022-07-29T07:42:33;20.30;63.70
40960;DHT22;27842;52.272;8.052;2022-07-29T07:44:59;20.40;63.60
40960;DHT22;27842;52.272;8.052;2022-07-29T07:47:25;20.50;63.40
40960;DHT22;27842;52.272;8.052;2022-07-29T07:49:52;20.50;63.40
40960;DHT22;27842;52.272;8.052;2022-07-29T07:52:20;20.50;63.40
40960;DHT22;27842;52.272;8.052;2022-07-29T07:54:46;20.60;63.40
40960;DHT22;27842;52.272;8.052;2022-07-29T07:57:12;20.70;63.20
40960;DHT22;27842;52.272;8.052;2022-07-29T07:59:38;20.70;63.20
40960;DHT22;27842;52.272;8.052;2022-07-29T08:02:14;20.80;63.40
40960;DHT22;27842;52.272;8.052;2022-07-29T08:04:40;20.80;63.20
40960;DHT22;27842;52.272;8.052;2022-07-29T08:10:04;20.90;62.70
40960;DHT22;27842;52.272;8.052;2022-07-29T08:12:35;20.90;62.80
40960;DHT22;27842;52.272;8.052;2022-07-29T08:15:04;20.80;62.90
40960;DHT22;27842;52.272;8.052;2022-07-29T08:17:34;20.80;63.10
40960;DHT22;27842;52.272;8.052;2022-07-29T08:20:00;20.90;63.10
40960;DHT22;27842;52.272;8.052;2022-07-29T08:22:36;20.90;62.90
40960;DHT22;27842;52.272;8.052;2022-07-29T08:25:39;20.90;63.00
40960;DHT22;27842;52.272;8.052;2022-07-29T08:30:57;21.00;62.80
40960;DHT22;27842;52.272;8.052;2022-07-29T08:33:23;21.00;62.90
40960;DHT22;27842;52.272;8.052;2022-07-29T08:35:49;21.00;62.80
40960;DHT22;27842;52.272;8.052;2022-07-29T08:38:20;21.00;62.70
40960;DHT22;27842;52.272;8.052;2022-07-29T08:40:46;21.00;62.80
40960;DHT22;27842;52.272;8.052;2022-07-29T08:43:32;21.00;62.90
40960;DHT22;27842;52.272;8.052;2022-07-29T08:46:00;21.10;62.80
40960;DHT22;27842;52.272;8.052;2022-07-29T08:48:26;21.10;62.70
40960;DHT22;27842;52.272;8.052;2022-07-29T08:54:10;21.10;62.70
40960;DHT22;27842;52.272;8.052;2022-07-29T08:56:40;21.30;62.50
40960;DHT22;27842;52.272;8.052;2022-07-29T08:59:32;21.40;62.20
40960;DHT22;27842;52.272;8.052;2022-07-29T09:05:04;21.40;62.10
40960;DHT22;27842;52.272;8.052;2022-07-29T09:07:30;21.50;62.20
40960;DHT22;27842;52.272;8.052;2022-07-29T09:10:09;21.70;62.10
40960;DHT22;27842;52.272;8.052;2022-07-29T09:12:47;21.90;61.90
40960;DHT22;27842;52.272;8.052;2022-07-29T09:15:39;22.00;61.60
40960;DHT22;27842;52.272;8.052;2022-07-29T09:18:05;22.20;61.20
40960;DHT22;27842;52.272;8.052;2022-07-29T09:20:30;22.40;61.10
40960;DHT22;27842;52.272;8.052;2022-07-29T09:23:17;22.50;61.00
40960;DHT22;27842;52.272;8.052;2022-07-29T09:25:43;22.60;60.80
40960;DHT22;27842;52.272;8.052;2022-07-29T09:28:18;22.80;60.60
40960;DHT22;27842;52.272;8.052;2022-07-29T09:31:05;22.90;60.30
40960;DHT22;27842;52.272;8.052;2022-07-29T09:33:33;23.00;60.30
40960;DHT22;27842;52.272;8.052;2022-07-29T09:36:10;23.00;60.10
40960;DHT22;27842;52.272;8.052;2022-07-29T09:38:36;23.10;60.50
40960;DHT22;27842;52.272;8.052;2022-07-29T09:41:04;23.10;59.70
40960;DHT22;27842;52.272;8.052;2022-07-29T09:43:30;23.00;59.70
40960;DHT22;27842;52.272;8.052;2022-07-29T09:46:14;23.00;59.80
40960;DHT22;27842;52.272;8.052;2022-07-29T09:48:40;23.10;59.40
40960;DHT22;27842;52.272;8.052;2022-07-29T09:51:19;23.00;59.60
40960;DHT22;27842;52.272;8.052;2022-07-29T09:53:48;23.00;58.80
40960;DHT22;27842;52.272;8.052;2022-07-29T09:56:15;22.90;59.60
40960;DHT22;27842;52.272;8.052;2022-07-29T09:58:41;22.90;59.80
40960;DHT22;27842;52.272;8.052;2022-07-29T10:01:07;22.90;59.70
40960;DHT22;27842;52.272;8.052;2022-07-29T10:03:50;22.90;59.60
40960;DHT22;27842;52.272;8.052;2022-07-29T10:06:16;22.90;59.60
40960;DHT22;27842;52.272;8.052;2022-07-29T10:08:51;22.80;59.60
40960;DHT22;27842;52.272;8.052;2022-07-29T10:11:20;22.80;59.70
40960;DHT22;27842;52.272;8.052;2022-07-29T10:13:47;22.80;59.90
40960;DHT22;27842;52.272;8.052;2022-07-29T10:16:30;22.80;59.80
40960;DHT22;27842;52.272;8.052;2022-07-29T10:19:04;22.80;59.80
40960;DHT22;27842;52.272;8.052;2022-07-29T10:21:33;22.80;59.80
40960;DHT22;27842;52.272;8.052;2022-07-29T10:24:02;22.80;59.90
40960;DHT22;27842;52.272;8.052;2022-07-29T10:26:48;22.80;59.90
40960;DHT22;27842;52.272;8.052;2022-07-29T10:29:39;22.90;60.40
40960;DHT22;27842;52.272;8.052;2022-07-29T10:37:20;23.00;59.60
40960;DHT22;27842;52.272;8.052;2022-07-29T10:43:28;23.10;59.10
40960;DHT22;27842;52.272;8.052;2022-07-29T10:46:03;23.10;59.20
40960;DHT22;27842;52.272;8.052;2022-07-29T10:48:29;23.20;58.80
40960;DHT22;27842;52.272;8.052;2022-07-29T10:51:01;23.20;58.40
40960;DHT22;27842;52.272;8.052;2022-07-29T10:53:58;23.20;58.70
40960;DHT22;27842;52.272;8.052;2022-07-29T10:56:32;23.20;58.40
40960;DHT22;27842;52.272;8.052;2022-07-29T10:59:30;23.20;58.20
40960;DHT22;27842;52.272;8.052;2022-07-29T11:01:56;23.20;58.30
40960;DHT22;27842;52.272;8.052;2022-07-29T11:07:12;23.20;58.50
40960;DHT22;27842;52.272;8.052;2022-07-29T11:09:44;23.20;58.70
40960;DHT22;27842;52.272;8.052;2022-07-29T11:15:12;23.20;58.80
40960;DHT22;27842;52.272;8.052;2022-07-29T11:21:00;23.10;58.30
40960;DHT22;27842;52.272;8.052;2022-07-29T11:24:10;23.10;58.90
40960;DHT22;27842;52.272;8.052;2022-07-29T11:26:37;23.10;58.90
40960;DHT22;27842;52.272;8.052;2022-07-29T11:29:19;23.10;59.20
40960;DHT22;27842;52.272;8.052;2022-07-29T11:31:47;23.10;59.20
40960;DHT22;27842;52.272;8.052;2022-07-29T11:34:41;23.10;59.20
40960;DHT22;27842;52.272;8.052;2022-07-29T11:37:25;23.10;59.00
40960;DHT22;27842;52.272;8.052;2022-07-29T11:48:04;23.20;59.40
40960;DHT22;27842;52.272;8.052;2022-07-29T11:50:33;23.20;59.40
40960;DHT22;27842;52.272;8.052;2022-07-29T11:53:01;23.20;59.30
40960;DHT22;27842;52.272;8.052;2022-07-29T11:55:27;23.20;59.30
40960;DHT22;27842;52.272;8.052;2022-07-29T11:58:02;23.30;59.30
40960;DHT22;27842;52.272;8.052;2022-07-29T12:00:39;23.30;59.20
40960;DHT22;27842;52.272;8.052;2022-07-29T12:03:11;23.30;59.30
40960;DHT22;27842;52.272;8.052;2022-07-29T12:05:45;23.30;59.30
40960;DHT22;27842;52.272;8.052;2022-07-29T12:08:22;23.40;59.30
40960;DHT22;27842;52.272;8.052;2022-07-29T12:10:56;23.40;59.30
40960;DHT22;27842;52.272;8.052;2022-07-29T12:13:24;23.40;59.10
40960;DHT22;27842;52.272;8.052;2022-07-29T12:15:54;23.50;59.00
40960;DHT22;27842;52.272;8.052;2022-07-29T12:18:54;23.40;59.00
40960;DHT22;27842;52.272;8.052;2022-07-29T12:21:20;23.40;59.10
40960;DHT22;27842;52.272;8.052;2022-07-29T12:30:17;23.50;59.20
40960;DHT22;27842;52.272;8.052;2022-07-29T12:32:47;23.50;59.10
40960;DHT22;27842;52.272;8.052;2022-07-29T12:35:41;23.50;59.00
40960;DHT22;27842;52.272;8.052;2022-07-29T12:38:21;23.50;59.10
40960;DHT22;27842;52.272;8.052;2022-07-29T12:40:52;23.50;59.20
40960;DHT22;27842;52.272;8.052;2022-07-29T12:43:53;23.50;58.90
40960;DHT22;27842;52.272;8.052;2022-07-29T12:46:26;23.50;58.70
40960;DHT22;27842;52.272;8.052;2022-07-29T12:49:03;23.50;59.10
40960;DHT22;27842;52.272;8.052;2022-07-29T12:51:33;23.40;59.10
40960;DHT22;27842;52.272;8.052;2022-07-29T12:54:18;23.50;59.20
40960;DHT22;27842;52.272;8.052;2022-07-29T12:56:44;23.40;59.20
40960;DHT22;27842;52.272;8.052;2022-07-29T12:59:59;23.40;59.20
40960;DHT22;27842;52.272;8.052;2022-07-29T13:02:43;23.40;59.30
40960;DHT22;27842;52.272;8.052;2022-07-29T13:05:22;23.40;59.40
40960;DHT22;27842;52.272;8.052;2022-07-29T13:08:00;23.40;59.60
40960;DHT22;27842;52.272;8.052;2022-07-29T13:11:04;23.30;59.60
40960;DHT22;27842;52.272;8.052;2022-07-29T13:13:49;23.30;60.00
40960;DHT22;27842;52.272;8.052;2022-07-29T13:16:25;23.30;61.20
40960;DHT22;27842;52.272;8.052;2022-07-29T13:19:10;23.20;60.80
40960;DHT22;27842;52.272;8.052;2022-07-29T13:21:39;23.20;61.60
40960;DHT22;27842;52.272;8.052;2022-07-29T13:24:32;23.10;61.80
40960;DHT22;27842;52.272;8.052;2022-07-29T13:27:03;23.10;62.20
40960;DHT22;27842;52.272;8.052;2022-07-29T13:29:35;23.00;62.30
40960;DHT22;27842;52.272;8.052;2022-07-29T13:32:25;23.00;63.00
40960;DHT22;27842;52.272;8.052;2022-07-29T13:38:02;22.90;63.30
40960;DHT22;27842;52.272;8.052;2022-07-29T13:40:28;22.80;63.60
40960;DHT22;27842;52.272;8.052;2022-07-29T13:42:58;22.80;64.30
40960;DHT22;27842;52.272;8.052;2022-07-29T13:45:23;22.70;64.30
40960;DHT22;27842;52.272;8.052;2022-07-29T13:47:49;22.70;64.40
40960;DHT22;27842;52.272;8.052;2022-07-29T13:50:15;22.60;64.60
40960;DHT22;27842;52.272;8.052;2022-07-29T13:52:40;22.60;64.80
40960;DHT22;27842;52.272;8.052;2022-07-29T13:55:10;22.60;65.10
40960;DHT22;27842;52.272;8.052;2022-07-29T13:57:59;22.60;65.20
40960;DHT22;27842;52.272;8.052;2022-07-29T14:00:35;22.60;65.60
40960;DHT22;27842;52.272;8.052;2022-07-29T14:03:01;22.60;65.70
40960;DHT22;27842;52.272;8.052;2022-07-29T14:05:29;22.60;65.90
40960;DHT22;27842;52.272;8.052;2022-07-29T14:07:58;22.60;66.00
40960;DHT22;27842;52.272;8.052;2022-07-29T14:10:30;22.60;66.10
40960;DHT22;27842;52.272;8.052;2022-07-29T14:13:01;22.50;66.10
40960;DHT22;27842;52.272;8.052;2022-07-29T14:15:30;22.50;66.30
40960;DHT22;27842;52.272;8.052;2022-07-29T14:17:59;22.50;66.60
40960;DHT22;27842;52.272;8.052;2022-07-29T14:20:27;22.50;66.40
40960;DHT22;27842;52.272;8.052;2022-07-29T14:23:04;22.40;66.50
40960;DHT22;27842;52.272;8.052;2022-07-29T14:25:37;22.40;66.40
40960;DHT22;27842;52.272;8.052;2022-07-29T14:28:13;22.50;66.40
40960;DHT22;27842;52.272;8.052;2022-07-29T14:30:41;22.50;66.70
40960;DHT22;27842;52.272;8.052;2022-07-29T14:33:17;22.40;66.70
40960;DHT22;27842;52.272;8.052;2022-07-29T14:35:44;22.40;66.60
40960;DHT22;27842;52.272;8.052;2022-07-29T14:38:22;22.40;66.60
40960;DHT22;27842;52.272;8.052;2022-07-29T14:40:50;22.40;66.90
40960;DHT22;27842;52.272;8.052;2022-07-29T14:43:16;22.50;66.90
40960;DHT22;27842;52.272;8.052;2022-07-29T14:45:42;22.50;67.00
40960;DHT22;27842;52.272;8.052;2022-07-29T14:48:07;22.50;67.00
40960;DHT22;27842;52.272;8.052;2022-07-29T14:50:37;22.40;67.10
40960;DHT22;27842;52.272;8.052;2022-07-29T14:53:05;22.50;67.20
40960;DHT22;27842;52.272;8.052;2022-07-29T14:55:31;22.50;67.30
40960;DHT22;27842;52.272;8.052;2022-07-29T14:57:56;22.50;67.40
40960;DHT22;27842;52.272;8.052;2022-07-29T15:00:22;22.40;67.40
40960;DHT22;27842;52.272;8.052;2022-07-29T15:02:48;22.50;67.50
40960;DHT22;27842;52.272;8.052;2022-07-29T15:05:13;22.40;67.70
40960;DHT22;27842;52.272;8.052;2022-07-29T15:07:39;22.40;67.70
40960;DHT22;27842;52.272;8.052;2022-07-29T15:10:05;22.40;67.70
40960;DHT22;27842;52.272;8.052;2022-07-29T15:12:32;22.40;67.60
40960;DHT22;27842;52.272;8.052;2022-07-29T15:15:13;22.40;67.70
40960;DHT22;27842;52.272;8.052;2022-07-29T15:17:44;22.40;67.90
40960;DHT22;27842;52.272;8.052;2022-07-29T15:20:13;22.40;67.80
40960;DHT22;27842;52.272;8.052;2022-07-29T15:22:48;22.40;67.70
40960;DHT22;27842;52.272;8.052;2022-07-29T15:25:26;22.40;68.90
40960;DHT22;27842;52.272;8.052;2022-07-29T15:27:52;22.40;67.60
40960;DHT22;27842;52.272;8.052;2022-07-29T15:30:18;22.50;67.90
40960;DHT22;27842;52.272;8.052;2022-07-29T15:32:44;22.50;68.10
40960;DHT22;27842;52.272;8.052;2022-07-29T15:35:09;22.60;68.30
40960;DHT22;27842;52.272;8.052;2022-07-29T15:37:37;22.60;69.00
40960;DHT22;27842;52.272;8.052;2022-07-29T15:40:03;22.60;68.40
40960;DHT22;27842;52.272;8.052;2022-07-29T15:42:29;22.60;68.50
40960;DHT22;27842;52.272;8.052;2022-07-29T15:44:54;22.70;68.60
40960;DHT22;27842;52.272;8.052;2022-07-29T15:47:21;22.80;68.40
40960;DHT22;27842;52.272;8.052;2022-07-29T15:49:46;22.80;68.30
40960;DHT22;27842;52.272;8.052;2022-07-29T15:52:12;22.80;68.20
40960;DHT22;27842;52.272;8.052;2022-07-29T15:54:39;22.90;68.20
40960;DHT22;27842;52.272;8.052;2022-07-29T15:57:14;22.90;68.10
40960;DHT22;27842;52.272;8.052;2022-07-29T15:59:39;22.80;68.40
40960;DHT22;27842;52.272;8.052;2022-07-29T16:02:05;22.90;68.10
40960;DHT22;27842;52.272;8.052;2022-07-29T16:04:31;22.90;68.20
40960;DHT22;27842;52.272;8.052;2022-07-29T16:06:57;22.90;67.90
40960;DHT22;27842;52.272;8.052;2022-07-29T16:09:23;23.00;67.90
40960;DHT22;27842;52.272;8.052;2022-07-29T16:11:49;23.00;67.70
40960;DHT22;27842;52.272;8.052;2022-07-29T16:14:18;23.00;67.70
40960;DHT22;27842;52.272;8.052;2022-07-29T16:16:43;23.00;67.70
40960;DHT22;27842;52.272;8.052;2022-07-29T16:19:09;23.00;67.70
40960;DHT22;27842;52.272;8.052;2022-07-29T16:21:36;23.00;67.60
40960;DHT22;27842;52.272;8.052;2022-07-29T16:24:03;23.00;67.60
40960;DHT22;27842;52.272;8.052;2022-07-29T16:26:29;23.00;67.60
40960;DHT22;27842;52.272;8.052;2022-07-29T16:28:54;23.00;67.50
40960;DHT22;27842;52.272;8.052;2022-07-29T16:31:20;23.10;67.30
40960;DHT22;27842;52.272;8.052;2022-07-29T16:33:51;23.10;66.90
40960;DHT22;27842;52.272;8.052;2022-07-29T16:36:17;23.10;66.70
40960;DHT22;27842;52.272;8.052;2022-07-29T16:38:42;23.10;66.30
40960;DHT22;27842;52.272;8.052;2022-07-29T16:41:08;23.10;66.20
40960;DHT22;27842;52.272;8.052;2022-07-29T16:43:47;23.10;66.30